createdAt,value
2018-01-06T00:01:21.027Z,6.00
2018-01-06T00:03:48.670Z,6.00
2018-01-06T00:06:16.247Z,7.07
2018-01-06T00:08:43.824Z,5.90
2018-01-06T00:11:11.454Z,5.67
2018-01-06T00:13:39.026Z,6.23
2018-01-06T00:16:06.631Z,6.00
2018-01-06T00:18:34.198Z,6.67
2018-01-06T00:21:01.811Z,5.70
2018-01-06T00:23:29.466Z,5.97
2018-01-06T00:25:57.159Z,6.00
2018-01-06T00:28:24.732Z,5.60
2018-01-06T00:30:52.314Z,5.57
2018-01-06T00:33:19.874Z,5.30
2018-01-06T00:35:47.442Z,5.60
2018-01-06T00:38:15.015Z,5.03
2018-01-06T00:40:43.500Z,6.40
2018-01-06T00:43:11.870Z,5.87
2018-01-06T00:45:40.231Z,5.43
2018-01-06T00:48:07.799Z,5.70
2018-01-06T00:50:36.313Z,5.77
2018-01-06T00:53:03.887Z,4.43
2018-01-06T00:55:32.379Z,5.50
2018-01-06T00:58:00.027Z,4.60
2018-01-06T01:00:27.599Z,4.37
2018-01-06T01:02:55.898Z,4.73
2018-01-06T01:05:24.236Z,4.40
2018-01-06T01:07:51.901Z,4.60
2018-01-06T01:10:20.299Z,4.33
2018-01-06T01:12:47.902Z,3.90
2018-01-06T01:15:15.458Z,3.53
2018-01-06T01:17:43.068Z,4.10
2018-01-06T01:20:10.629Z,3.40
2018-01-06T01:22:39.027Z,3.50
2018-01-06T01:25:06.595Z,3.37
2018-01-06T01:27:34.162Z,3.00
2018-01-06T01:30:01.789Z,4.80
2018-01-06T01:32:30.065Z,3.73
2018-01-06T01:34:58.452Z,3.13
2018-01-06T01:37:26.014Z,3.30
2018-01-06T01:39:53.570Z,3.60
2018-01-06T01:42:21.139Z,3.07
2018-01-06T01:44:49.543Z,3.27
2018-01-06T01:47:17.890Z,3.50
2018-01-06T01:49:46.363Z,3.83
2018-01-06T01:52:14.932Z,3.33
2018-01-06T01:54:42.505Z,3.40
2018-01-06T01:57:10.986Z,2.90
2018-01-06T01:59:38.567Z,3.20
2018-01-06T02:02:06.172Z,3.60
2018-01-06T02:04:34.598Z,3.87
2018-01-06T02:07:02.982Z,3.27
2018-01-06T02:09:30.915Z,4.57
2018-01-06T02:11:58.492Z,3.47
2018-01-06T02:14:26.096Z,2.50
2018-01-06T02:16:53.677Z,3.23
2018-01-06T02:19:21.394Z,3.20
2018-01-06T02:21:48.962Z,3.70
2018-01-06T02:24:16.528Z,3.07
2018-01-06T02:26:44.109Z,2.43
2018-01-06T02:29:11.694Z,2.80
2018-01-06T02:31:40.072Z,3.53
2018-01-06T02:34:07.640Z,4.00
2018-01-06T02:36:35.237Z,2.67
2018-01-06T02:39:03.742Z,2.70
2018-01-06T02:41:32.146Z,2.70
2018-01-06T02:44:00.486Z,2.83
2018-01-06T02:46:28.871Z,3.23
2018-01-06T02:48:56.563Z,3.33
2018-01-06T02:51:24.126Z,3.10
2018-01-06T02:53:51.771Z,3.47
2018-01-06T02:56:19.338Z,2.30
2018-01-06T02:58:47.819Z,2.97
2018-01-06T03:01:15.490Z,2.43
2018-01-06T03:03:43.069Z,3.87
2018-01-06T03:06:10.642Z,2.60
2018-01-06T03:08:38.250Z,3.23
2018-01-06T03:11:05.853Z,2.93
2018-01-06T03:13:33.423Z,2.83
2018-01-06T03:16:01.030Z,2.80
2018-01-06T03:18:29.392Z,3.30
2018-01-06T03:20:57.790Z,2.40
2018-01-06T03:23:25.446Z,3.43
2018-01-06T03:25:53.028Z,3.30
2018-01-06T03:28:21.423Z,3.47
2018-01-06T03:30:49.898Z,3.73
2018-01-06T03:33:17.642Z,2.93
2018-01-06T03:35:45.215Z,3.50
2018-01-06T03:38:12.786Z,3.37
2018-01-06T03:40:40.420Z,3.83
2018-01-06T03:43:08.695Z,3.30
2018-01-06T03:45:36.358Z,4.60
2018-01-06T03:48:03.936Z,4.60
2018-01-06T03:50:31.574Z,3.73
2018-01-06T03:52:59.143Z,4.00
2018-01-06T03:55:26.731Z,4.83
2018-01-06T03:57:54.298Z,4.50
2018-01-06T04:00:21.858Z,4.57
2018-01-06T04:02:49.420Z,4.00
2018-01-06T04:05:16.991Z,3.90
2018-01-06T04:07:44.566Z,4.60
2018-01-06T04:10:12.127Z,3.70
2018-01-06T04:12:39.686Z,3.53
2018-01-06T04:15:07.260Z,4.00
2018-01-06T04:17:34.897Z,3.93
2018-01-06T04:20:03.290Z,3.60
2018-01-06T04:22:30.866Z,3.40
2018-01-06T04:24:58.453Z,3.73
2018-01-06T04:27:26.859Z,3.00
2018-01-06T04:29:55.326Z,3.87
2018-01-06T04:32:22.894Z,3.47
2018-01-06T04:34:50.467Z,3.80
2018-01-06T04:37:18.051Z,3.47
2018-01-06T04:39:45.714Z,4.33
2018-01-06T04:42:14.206Z,3.93
2018-01-06T04:44:41.801Z,3.57
2018-01-06T04:47:10.226Z,3.93
2018-01-06T04:49:37.810Z,3.77
2018-01-06T04:52:05.422Z,3.67
2018-01-06T04:54:33.922Z,3.97
2018-01-06T04:57:01.493Z,4.53
2018-01-06T04:59:29.960Z,3.50
2018-01-06T05:01:57.530Z,3.90
2018-01-06T05:04:25.107Z,3.77
2018-01-06T05:06:52.683Z,4.30
2018-01-06T05:09:21.170Z,4.37
2018-01-06T05:11:49.566Z,2.83
2018-01-06T05:14:17.971Z,3.80
2018-01-06T05:16:45.574Z,4.37
2018-01-06T05:19:14.564Z,3.73
2018-01-06T05:21:42.139Z,3.83
2018-01-06T05:24:10.659Z,4.17
2018-01-06T05:26:39.005Z,3.50
2018-01-06T05:29:07.267Z,3.73
2018-01-06T05:31:35.674Z,3.70
2018-01-06T05:34:03.244Z,3.23
2018-01-06T05:36:31.736Z,4.10
2018-01-06T05:39:00.169Z,2.93
2018-01-06T05:41:28.441Z,3.87
2018-01-06T05:43:56.830Z,3.50
2018-01-06T05:46:25.096Z,2.83
2018-01-06T05:48:52.666Z,3.80
2018-01-06T05:51:20.234Z,3.27
2018-01-06T05:53:47.805Z,3.83
2018-01-06T05:56:16.266Z,4.10
2018-01-06T05:58:44.610Z,3.30
2018-01-06T06:01:25.703Z,3.43
2018-01-06T06:03:53.265Z,3.53
2018-01-06T06:06:21.578Z,3.37
2018-01-06T06:08:49.850Z,3.47
2018-01-06T06:11:18.159Z,4.37
2018-01-06T06:13:46.563Z,4.30
2018-01-06T06:16:14.910Z,4.53
2018-01-06T06:18:43.242Z,3.83
2018-01-06T06:21:11.597Z,3.83
2018-01-06T06:23:39.159Z,3.93
2018-01-06T06:26:06.727Z,4.17
2018-01-06T06:28:34.364Z,4.57
2018-01-06T06:31:02.750Z,3.17
2018-01-06T06:33:30.329Z,5.10
2018-01-06T06:35:57.963Z,4.00
2018-01-06T06:38:25.566Z,4.33
2018-01-06T06:40:53.148Z,4.40
2018-01-06T06:43:20.745Z,4.80
2018-01-06T06:45:48.414Z,5.13
2018-01-06T06:48:16.003Z,5.43
2018-01-06T06:50:43.706Z,4.43
2018-01-06T06:53:12.242Z,4.50
2018-01-06T06:55:40.578Z,4.13
2018-01-06T06:58:08.933Z,4.97
2018-01-06T07:00:36.505Z,5.07
2018-01-06T07:03:04.166Z,4.53
2018-01-06T07:05:31.778Z,5.47
2018-01-06T07:07:59.350Z,4.77
2018-01-06T07:10:27.678Z,4.43
2018-01-06T07:12:55.242Z,3.90
2018-01-06T07:15:22.825Z,4.10
2018-01-06T07:17:51.293Z,5.70
2018-01-06T07:20:19.643Z,5.37
2018-01-06T07:22:47.256Z,5.40
2018-01-06T07:25:14.843Z,5.37
2018-01-06T07:27:42.419Z,5.60
2018-01-06T07:30:09.998Z,5.70
2018-01-06T07:32:37.571Z,6.00
2018-01-06T07:35:05.153Z,5.93
2018-01-06T07:37:32.855Z,6.00
2018-01-06T07:40:01.207Z,5.00
2018-01-06T07:42:28.795Z,5.07
2018-01-06T07:44:56.430Z,5.67
2018-01-06T07:47:24.086Z,5.47
2018-01-06T07:49:51.655Z,5.40
2018-01-06T07:52:20.038Z,18.23
2018-01-06T07:54:48.382Z,5.83
2018-01-06T07:57:15.967Z,5.10
2018-01-06T07:59:44.447Z,7.43
2018-01-06T08:02:12.984Z,7.10
2018-01-06T08:04:40.598Z,7.03
2018-01-06T08:07:09.067Z,6.70
2018-01-06T08:09:37.451Z,7.03
2018-01-06T08:12:05.123Z,6.50
2018-01-06T08:14:33.600Z,5.50
2018-01-06T08:17:01.984Z,5.43
2018-01-06T08:19:29.560Z,5.80
2018-01-06T08:21:57.203Z,5.60
2018-01-06T08:24:25.467Z,7.83
2018-01-06T08:26:53.047Z,8.60
2018-01-06T08:29:20.715Z,9.10
2018-01-06T08:31:48.320Z,9.03
2018-01-06T08:34:16.682Z,9.93
2018-01-06T08:36:45.066Z,8.37
2018-01-06T08:39:13.587Z,9.70
2018-01-06T08:41:41.273Z,7.90
2018-01-06T08:44:08.862Z,35.90
2018-01-06T08:46:36.453Z,37.07
2018-01-06T08:49:05.015Z,21.63
2018-01-06T08:51:33.563Z,21.10
2018-01-06T08:54:02.057Z,19.83
2018-01-06T08:56:29.634Z,15.57
2018-01-06T08:58:57.270Z,13.83
2018-01-06T09:01:24.847Z,21.80
2018-01-06T09:03:53.482Z,24.07
2018-01-06T09:06:21.061Z,16.63
2018-01-06T09:08:48.675Z,21.07
2018-01-06T09:11:16.447Z,19.13
2018-01-06T09:13:45.414Z,13.73
2018-01-06T09:16:13.886Z,10.77
2018-01-06T09:18:41.600Z,7.97
2018-01-06T09:21:10.034Z,9.60
2018-01-06T09:23:37.639Z,9.80
2018-01-06T09:26:05.211Z,9.40
2018-01-06T09:28:32.785Z,9.47
2018-01-06T09:31:00.359Z,9.17
2018-01-06T09:33:28.447Z,8.00
2018-01-06T09:35:56.121Z,7.90
2018-01-06T09:38:23.828Z,7.70
2018-01-06T09:40:52.475Z,8.87
2018-01-06T09:43:20.053Z,8.37
2018-01-06T09:45:47.709Z,8.77
2018-01-06T09:48:15.462Z,12.30
2018-01-06T09:50:43.047Z,11.60
2018-01-06T09:53:11.194Z,9.43
2018-01-06T09:55:38.776Z,8.50
2018-01-06T09:58:06.355Z,6.57
2018-01-06T10:00:33.930Z,6.93
2018-01-06T10:03:01.506Z,6.20
2018-01-06T10:05:29.087Z,5.60
2018-01-06T10:07:56.771Z,5.80
2018-01-06T10:10:24.364Z,4.53
2018-01-06T10:12:51.940Z,4.33
2018-01-06T10:15:19.651Z,4.00
2018-01-06T10:17:48.020Z,4.17
2018-01-06T10:20:15.590Z,4.60
2018-01-06T10:22:43.994Z,4.50
2018-01-06T10:25:11.566Z,5.20
2018-01-06T10:27:40.030Z,4.50
2018-01-06T10:30:08.419Z,3.80
2018-01-06T10:32:35.989Z,4.17
2018-01-06T10:35:03.557Z,3.70
2018-01-06T10:37:31.126Z,3.80
2018-01-06T10:39:58.703Z,3.70
2018-01-06T10:42:27.121Z,3.77
2018-01-06T10:44:55.487Z,4.00
2018-01-06T10:47:23.087Z,4.00
2018-01-06T10:49:50.658Z,4.13
2018-01-06T10:52:19.034Z,3.20
2018-01-06T10:54:46.616Z,3.80
2018-01-06T10:57:14.191Z,3.10
2018-01-06T10:59:41.760Z,3.20
2018-01-06T11:02:09.343Z,3.70
2018-01-06T11:04:36.952Z,3.90
2018-01-06T11:07:04.525Z,3.80
2018-01-06T11:09:32.126Z,3.40
2018-01-06T11:11:59.703Z,3.00
2018-01-06T11:14:27.286Z,3.40
2018-01-06T11:16:54.918Z,3.23
2018-01-06T11:19:22.538Z,3.23
2018-01-06T11:21:50.854Z,3.07
2018-01-06T11:24:18.466Z,3.50
2018-01-06T11:26:46.997Z,3.60
2018-01-06T11:29:14.887Z,3.40
2018-01-06T11:31:42.463Z,3.33
2018-01-06T11:34:10.078Z,2.80
2018-01-06T11:36:37.755Z,3.13
2018-01-06T11:39:06.340Z,3.00
2018-01-06T11:41:35.261Z,3.60
2018-01-06T11:44:02.882Z,5.43
2018-01-06T11:46:30.446Z,4.20
2018-01-06T11:48:58.119Z,3.77
2018-01-06T11:51:25.784Z,3.70
2018-01-06T11:53:54.374Z,4.67
2018-01-06T11:56:22.885Z,4.60
2018-01-06T11:58:50.514Z,5.57
2018-01-06T12:01:18.092Z,4.37
2018-01-06T12:03:45.702Z,4.20
2018-01-06T12:06:14.259Z,3.30
2018-01-06T12:08:42.595Z,2.90
2018-01-06T12:11:13.140Z,4.57
2018-01-06T12:13:41.607Z,4.20
2018-01-06T12:16:09.990Z,2.70
2018-01-06T12:18:38.337Z,5.40
2018-01-06T12:21:05.965Z,4.03
2018-01-06T12:23:33.567Z,2.93
2018-01-06T12:26:02.041Z,3.07
2018-01-06T12:28:30.404Z,7.77
2018-01-06T12:30:58.781Z,3.73
2018-01-06T12:33:26.427Z,3.03
2018-01-06T12:35:54.983Z,3.93
2018-01-06T12:38:22.644Z,4.60
2018-01-06T12:40:50.313Z,3.10
2018-01-06T12:43:17.896Z,2.73
2018-01-06T12:45:45.539Z,2.50
2018-01-06T12:48:13.196Z,3.20
2018-01-06T12:50:40.818Z,2.43
2018-01-06T12:53:08.945Z,2.13
2018-01-06T12:55:36.527Z,2.23
2018-01-06T12:58:04.096Z,1.50
2018-01-06T13:00:31.710Z,3.30
2018-01-06T13:02:59.282Z,2.77
2018-01-06T13:05:26.899Z,2.17
2018-01-06T13:07:54.482Z,2.80
2018-01-06T13:10:22.047Z,2.40
2018-01-06T13:12:49.614Z,3.10
2018-01-06T13:15:17.279Z,2.57
2018-01-06T13:17:44.847Z,3.20
2018-01-06T13:20:12.429Z,2.97
2018-01-06T13:22:40.899Z,2.23
2018-01-06T13:25:08.476Z,2.17
2018-01-06T13:27:36.053Z,3.83
2018-01-06T13:30:03.665Z,2.57
2018-01-06T13:32:31.237Z,2.57
2018-01-06T13:34:58.807Z,2.77
2018-01-06T13:37:26.614Z,2.37
2018-01-06T13:39:55.458Z,3.43
2018-01-06T13:42:23.164Z,3.80
2018-01-06T13:44:51.956Z,2.50
2018-01-06T13:47:19.598Z,2.43
2018-01-06T13:49:47.276Z,3.00
2018-01-06T13:52:14.894Z,3.23
2018-01-06T13:54:42.511Z,2.67
2018-01-06T13:57:10.084Z,4.03
2018-01-06T13:59:37.682Z,3.40
2018-01-06T14:02:05.262Z,3.30
2018-01-06T14:04:33.121Z,3.47
2018-01-06T14:07:00.691Z,2.80
2018-01-06T14:09:28.315Z,3.27
2018-01-06T14:11:56.533Z,2.67
2018-01-06T14:14:25.045Z,2.80
2018-01-06T14:16:53.409Z,3.30
2018-01-06T14:19:20.986Z,2.73
2018-01-06T14:21:49.483Z,4.17
2018-01-06T14:24:17.886Z,3.50
2018-01-06T14:26:46.319Z,4.07
2018-01-06T14:29:14.911Z,2.80
2018-01-06T14:31:43.399Z,2.90
2018-01-06T14:34:11.033Z,3.00
2018-01-06T14:36:38.640Z,3.00
2018-01-06T14:39:06.254Z,2.80
2018-01-06T14:41:33.827Z,3.13
2018-01-06T14:44:02.434Z,3.73
2018-01-06T14:46:30.005Z,4.37
2018-01-06T14:48:57.582Z,3.30
2018-01-06T14:51:25.928Z,4.50
2018-01-06T14:53:53.497Z,4.00
2018-01-06T14:56:21.163Z,3.40
2018-01-06T14:58:49.633Z,4.10
2018-01-06T15:01:17.202Z,3.50
2018-01-06T15:03:44.824Z,4.40
2018-01-06T15:06:15.908Z,3.87
2018-01-06T15:08:43.524Z,3.33
2018-01-06T15:11:11.100Z,3.90
2018-01-06T15:13:38.678Z,4.27
2018-01-06T15:16:06.255Z,3.27
2018-01-06T15:18:33.814Z,4.40
2018-01-06T15:21:01.393Z,3.23
2018-01-06T15:23:29.076Z,3.80
2018-01-06T15:25:56.759Z,4.43
2018-01-06T15:28:24.426Z,3.33
2018-01-06T15:30:52.058Z,3.77
2018-01-06T15:33:19.664Z,3.23
2018-01-06T15:35:47.243Z,3.17
2018-01-06T15:38:14.826Z,4.10
2018-01-06T15:40:42.459Z,3.50
2018-01-06T15:43:10.039Z,5.00
2018-01-06T15:45:38.723Z,4.47
2018-01-06T15:48:06.306Z,4.63
2018-01-06T15:50:34.029Z,4.20
2018-01-06T15:53:01.642Z,4.60
2018-01-06T15:55:29.314Z,4.60
2018-01-06T15:57:56.932Z,4.73
2018-01-06T16:00:24.510Z,5.43
2018-01-06T16:02:52.084Z,4.90
2018-01-06T16:05:19.750Z,4.57
2018-01-06T16:07:48.132Z,5.83
2018-01-06T16:10:16.598Z,4.60
2018-01-06T16:12:44.166Z,4.27
2018-01-06T16:15:11.831Z,4.67
2018-01-06T16:17:39.533Z,6.23
2018-01-06T16:20:07.515Z,5.10
2018-01-06T16:22:35.091Z,5.27
2018-01-06T16:25:02.671Z,6.03
2018-01-06T16:27:30.250Z,5.83
2018-01-06T16:29:57.876Z,5.40
2018-01-06T16:32:25.460Z,6.00
2018-01-06T16:34:53.022Z,5.90
2018-01-06T16:37:21.530Z,6.40
2018-01-06T16:42:22.906Z,5.67
2018-01-06T16:44:51.366Z,5.80
2018-01-06T16:47:18.982Z,5.77
2018-01-06T16:49:46.568Z,7.37
2018-01-06T16:52:14.167Z,9.40
2018-01-06T16:54:42.667Z,10.70
2018-01-06T16:57:11.091Z,15.00
2018-01-06T16:59:39.498Z,18.83
2018-01-06T17:02:07.104Z,16.87
2018-01-06T17:04:35.744Z,16.40
2018-01-06T17:07:04.172Z,16.57
2018-01-06T17:09:31.787Z,18.53
2018-01-06T17:11:59.373Z,15.13
2018-01-06T17:14:27.924Z,14.47
2018-01-06T17:16:56.595Z,12.93
2018-01-06T17:19:25.550Z,12.50
2018-01-06T17:21:53.139Z,13.10
2018-01-06T17:24:20.719Z,13.10
2018-01-06T17:26:48.294Z,38.87
2018-01-06T17:29:16.282Z,25.43
2018-01-06T17:31:44.658Z,22.37
2018-01-06T17:34:12.872Z,16.40
2018-01-06T17:36:40.460Z,18.00
2018-01-06T17:39:08.866Z,17.93
2018-01-06T17:41:37.466Z,17.60
2018-01-06T17:44:06.622Z,25.97
2018-01-06T17:46:35.155Z,22.47
2018-01-06T17:49:02.820Z,18.60
2018-01-06T17:51:30.531Z,15.50
2018-01-06T17:53:58.108Z,16.50
2018-01-06T17:56:25.695Z,19.60
2018-01-06T17:58:53.275Z,24.00
2018-01-06T18:01:20.857Z,26.77
2018-01-06T18:03:48.434Z,34.67
2018-01-06T18:06:16.023Z,34.90
2018-01-06T18:08:44.387Z,32.43
2018-01-06T18:11:12.024Z,30.70
2018-01-06T18:13:40.614Z,34.90
2018-01-06T18:16:08.206Z,35.00
2018-01-06T18:18:36.680Z,33.30
2018-01-06T18:21:04.255Z,27.20
2018-01-06T18:23:31.914Z,21.70
2018-01-06T18:25:59.496Z,19.53
2018-01-06T18:28:27.178Z,17.03
2018-01-06T18:30:54.791Z,19.70
2018-01-06T18:33:23.182Z,26.60
2018-01-06T18:35:50.820Z,29.90
2018-01-06T18:38:18.413Z,28.50
2018-01-06T18:40:46.074Z,28.13
2018-01-06T18:43:14.559Z,26.10
2018-01-06T18:45:42.220Z,25.70
2018-01-06T18:48:09.803Z,35.47
2018-01-06T18:50:37.475Z,27.90
2018-01-06T18:53:05.174Z,45.17
2018-01-06T18:55:32.750Z,22.60
2018-01-06T18:58:00.382Z,21.90
2018-01-06T19:00:27.968Z,22.93
2018-01-06T19:02:55.651Z,36.83
2018-01-06T19:05:23.242Z,78.40
2018-01-06T19:07:50.831Z,46.67
2018-01-06T19:10:18.432Z,32.00
2018-01-06T19:12:46.867Z,32.27
2018-01-06T19:15:14.486Z,30.57
2018-01-06T19:17:42.147Z,42.70
2018-01-06T19:20:09.726Z,63.60
2018-01-06T19:22:37.315Z,76.73
2018-01-06T19:25:04.928Z,31.40
2018-01-06T19:27:32.594Z,27.60
2018-01-06T19:30:00.999Z,31.03
2018-01-06T19:32:28.581Z,35.17
2018-01-06T19:34:56.166Z,39.83
2018-01-06T19:37:23.739Z,38.03
2018-01-06T19:39:51.314Z,23.27
2018-01-06T19:42:18.906Z,34.77
2018-01-06T19:44:46.485Z,30.33
2018-01-06T19:47:14.098Z,30.23
2018-01-06T19:49:41.684Z,32.90
2018-01-06T19:52:09.323Z,27.17
2018-01-06T19:54:36.899Z,18.00
2018-01-06T19:57:04.474Z,23.80
2018-01-06T19:59:32.056Z,22.67
2018-01-06T20:01:59.635Z,28.20
2018-01-06T20:04:27.223Z,27.80
2018-01-06T20:06:54.803Z,26.67
2018-01-06T20:09:22.964Z,21.50
2018-01-06T20:11:50.543Z,21.73
2018-01-06T20:14:18.394Z,20.20
2018-01-06T20:16:46.786Z,20.47
2018-01-06T20:19:15.872Z,22.20
2018-01-06T20:21:43.449Z,21.33
2018-01-06T20:24:11.083Z,22.00
2018-01-06T20:26:38.752Z,20.27
2018-01-06T20:29:06.336Z,22.00
2018-01-06T20:31:33.925Z,20.33
2018-01-06T20:34:01.503Z,20.33
2018-01-06T20:36:30.120Z,21.70
2018-01-06T20:38:58.590Z,22.90
2018-01-06T20:41:26.231Z,20.40
2018-01-06T20:43:53.865Z,23.53
2018-01-06T20:46:21.448Z,21.53
2018-01-06T20:48:49.088Z,22.73
2018-01-06T20:51:16.711Z,24.00
2018-01-06T20:53:44.292Z,22.10
2018-01-06T20:56:11.992Z,24.97
2018-01-06T20:58:39.571Z,24.27
2018-01-06T21:01:07.151Z,22.60
2018-01-06T21:03:34.831Z,24.07
2018-01-06T21:06:02.455Z,23.70
2018-01-06T21:08:30.047Z,25.87
2018-01-06T21:10:57.634Z,26.33
2018-01-06T21:13:25.219Z,28.50
2018-01-06T21:15:52.794Z,25.70
2018-01-06T21:18:20.407Z,27.43
2018-01-06T21:20:48.109Z,26.30
2018-01-06T21:23:15.721Z,22.90
2018-01-06T21:25:43.340Z,21.00
2018-01-06T21:28:10.919Z,23.57
2018-01-06T21:30:38.503Z,23.07
2018-01-06T21:33:06.083Z,23.80
2018-01-06T21:35:33.727Z,22.53
2018-01-06T21:38:01.310Z,20.70
2018-01-06T21:40:28.914Z,21.27
2018-01-06T21:42:56.510Z,19.40
2018-01-06T21:45:24.918Z,19.63
2018-01-06T21:47:52.530Z,19.83
2018-01-06T21:50:20.106Z,19.60
2018-01-06T21:52:47.766Z,20.83
2018-01-06T21:55:16.357Z,18.70
2018-01-06T21:57:44.017Z,18.40
2018-01-06T22:00:11.690Z,18.37
2018-01-06T22:02:39.314Z,18.53
2018-01-06T22:05:06.986Z,16.97
2018-01-06T22:07:34.673Z,17.83
2018-01-06T22:10:02.443Z,17.33
2018-01-06T22:12:30.117Z,16.27
2018-01-06T22:14:57.730Z,18.13
2018-01-06T22:17:25.319Z,16.33
2018-01-06T22:19:52.910Z,15.00
2018-01-06T22:22:20.487Z,15.90
2018-01-06T22:24:48.067Z,14.60
2018-01-06T22:27:15.679Z,15.10
2018-01-06T22:29:43.343Z,15.20
2018-01-06T22:32:10.945Z,14.73
2018-01-06T22:34:38.522Z,14.13
2018-01-06T22:37:06.147Z,14.40
2018-01-06T22:39:34.533Z,14.73
2018-01-06T22:42:03.040Z,14.40
2018-01-06T22:44:30.614Z,16.27
2018-01-06T22:46:58.194Z,14.27
2018-01-06T22:49:25.836Z,14.40
2018-01-06T22:51:53.414Z,14.20
2018-01-06T22:54:21.092Z,15.97
2018-01-06T22:56:48.754Z,14.70
2018-01-06T22:59:16.435Z,15.97
2018-01-06T23:01:44.011Z,15.37
2018-01-06T23:04:11.640Z,16.07
2018-01-06T23:06:39.303Z,15.30
2018-01-06T23:09:07.758Z,14.50
2018-01-06T23:11:35.330Z,14.17
2018-01-06T23:14:02.969Z,16.07
2018-01-06T23:16:30.551Z,15.03
2018-01-06T23:18:58.235Z,15.13
2018-01-06T23:21:25.896Z,13.90
2018-01-06T23:23:53.554Z,14.50
2018-01-06T23:26:21.188Z,15.27
2018-01-06T23:28:48.864Z,13.43
2018-01-06T23:31:16.515Z,13.80
2018-01-06T23:33:44.099Z,13.33
2018-01-06T23:36:11.719Z,12.90
2018-01-06T23:38:39.306Z,12.40
2018-01-06T23:41:06.890Z,12.37
2018-01-06T23:43:34.575Z,10.60
2018-01-06T23:46:02.930Z,11.37
2018-01-06T23:48:31.310Z,10.17
2018-01-06T23:50:59.523Z,10.67
2018-01-06T23:53:27.098Z,10.50
2018-01-06T23:55:54.670Z,9.97
2018-01-06T23:58:22.242Z,9.20
